createdAt,value
2019-05-18T00:01:45.791Z,3.10
2019-05-18T00:06:49.951Z,2.72
2019-05-18T00:11:54.543Z,2.87
2019-05-18T00:16:58.684Z,2.58
2019-05-18T00:22:02.848Z,2.60
2019-05-18T00:27:07.039Z,2.80
2019-05-18T00:32:11.214Z,2.47
2019-05-18T00:37:15.373Z,2.90
2019-05-18T00:42:19.540Z,2.33
2019-05-18T00:47:23.721Z,2.90
2019-05-18T00:52:27.877Z,3.10
2019-05-18T00:57:32.034Z,3.02
2019-05-18T01:02:36.295Z,3.22
2019-05-18T01:07:40.471Z,2.87
2019-05-18T01:12:44.637Z,2.92
2019-05-18T01:17:56.935Z,2.90
2019-05-18T01:22:54.794Z,2.72
2019-05-18T01:27:58.981Z,2.80
2019-05-18T01:33:03.414Z,2.75
2019-05-18T01:38:07.570Z,2.80
2019-05-18T01:43:11.765Z,3.15
2019-05-18T01:48:15.920Z,2.50
2019-05-18T01:53:20.088Z,2.87
2019-05-18T01:58:24.271Z,2.85
2019-05-18T02:03:28.599Z,2.75
2019-05-18T02:08:32.785Z,2.65
2019-05-18T02:13:36.947Z,2.75
2019-05-18T02:18:41.111Z,3.12
2019-05-18T02:23:45.279Z,2.87
2019-05-18T02:28:49.451Z,2.77
2019-05-18T02:33:53.686Z,3.15
2019-05-18T02:38:57.851Z,3.10
2019-05-18T02:44:03.651Z,2.80
2019-05-18T02:49:07.824Z,3.10
2019-05-18T02:54:12.237Z,2.95
2019-05-18T02:59:16.431Z,2.50
2019-05-18T03:04:20.593Z,2.58
2019-05-18T03:09:24.775Z,2.80
2019-05-18T03:14:35.342Z,3.02
2019-05-18T03:19:39.512Z,2.70
2019-05-18T03:24:43.723Z,2.98
2019-05-18T03:29:49.539Z,3.00
2019-05-18T03:34:53.725Z,2.77
2019-05-18T03:39:57.864Z,2.60
2019-05-18T03:45:02.055Z,2.75
2019-05-18T03:50:07.632Z,2.65
2019-05-18T03:55:11.977Z,2.72
2019-05-18T04:00:16.131Z,2.85
2019-05-18T04:05:20.330Z,2.95
2019-05-18T04:10:26.494Z,3.00
2019-05-18T04:15:30.651Z,3.08
2019-05-18T04:20:34.811Z,2.75
2019-05-18T04:25:42.937Z,2.55
2019-05-18T04:30:44.939Z,2.65
2019-05-18T04:35:49.073Z,3.10
2019-05-18T04:40:53.243Z,2.47
2019-05-18T04:45:57.452Z,2.70
2019-05-18T04:51:01.609Z,2.50
2019-05-18T04:56:05.789Z,2.87
2019-05-18T05:01:09.969Z,2.85
2019-05-18T05:06:14.398Z,2.70
2019-05-18T05:11:21.697Z,3.17
2019-05-18T05:16:25.886Z,2.52
2019-05-18T05:21:32.490Z,2.37
2019-05-18T05:26:39.320Z,2.37
2019-05-18T05:31:42.591Z,2.58
2019-05-18T05:36:46.843Z,1.98
2019-05-18T05:41:51.074Z,1.90
2019-05-18T05:46:55.264Z,2.27
2019-05-18T05:51:59.873Z,1.92
2019-05-18T05:57:04.260Z,2.10
2019-05-18T06:02:08.639Z,2.20
2019-05-18T06:07:12.856Z,1.82
2019-05-18T06:12:17.063Z,2.17
2019-05-18T06:17:21.224Z,2.20
2019-05-18T06:22:25.379Z,2.20
2019-05-18T06:27:29.588Z,1.95
2019-05-18T06:32:33.859Z,2.62
2019-05-18T06:37:38.036Z,1.90
2019-05-18T06:42:42.213Z,1.90
2019-05-18T06:47:48.381Z,2.22
2019-05-18T06:52:52.303Z,1.85
2019-05-18T06:57:58.285Z,1.85
2019-05-18T07:03:02.728Z,1.75
2019-05-18T07:08:06.843Z,3.10
2019-05-18T07:13:11.054Z,3.30
2019-05-18T07:18:15.260Z,4.10
2019-05-18T07:23:19.428Z,3.05
2019-05-18T07:28:23.636Z,2.77
2019-05-18T07:33:27.841Z,2.83
2019-05-18T07:38:32.023Z,2.60
2019-05-18T07:43:36.190Z,2.10
2019-05-18T07:48:40.395Z,2.40
2019-05-18T07:53:44.580Z,2.08
2019-05-18T07:58:48.750Z,2.12
2019-05-18T08:03:52.948Z,2.40
2019-05-18T08:08:57.153Z,2.00
2019-05-18T08:14:01.347Z,1.85
2019-05-18T08:19:05.528Z,20.40
2019-05-18T08:24:09.939Z,5.12
2019-05-18T08:29:14.298Z,4.35
2019-05-18T08:34:18.655Z,3.98
2019-05-18T08:39:23.047Z,3.40
2019-05-18T08:44:27.392Z,3.20
2019-05-18T08:49:31.742Z,2.62
2019-05-18T08:54:36.079Z,2.50
2019-05-18T08:59:40.431Z,2.67
2019-05-18T09:04:44.765Z,2.17
2019-05-18T09:09:49.160Z,2.50
2019-05-18T09:14:55.092Z,2.35
2019-05-18T09:19:59.466Z,2.00
2019-05-18T09:25:07.200Z,1.95
2019-05-18T09:30:12.271Z,15.63
2019-05-18T09:35:17.251Z,26.33
2019-05-18T09:40:22.998Z,26.60
2019-05-18T09:45:27.361Z,23.40
2019-05-18T09:50:31.730Z,21.97
2019-05-18T09:55:36.066Z,22.35
2019-05-18T10:00:40.427Z,23.30
2019-05-18T10:05:44.973Z,22.75
2019-05-18T10:10:49.317Z,23.30
2019-05-18T10:15:53.674Z,20.65
2019-05-18T10:20:58.023Z,21.82
2019-05-18T10:26:02.394Z,24.20
2019-05-18T10:31:06.756Z,20.90
2019-05-18T10:36:11.783Z,23.55
2019-05-18T10:41:16.482Z,21.48
2019-05-18T10:46:20.854Z,22.07
2019-05-18T10:51:25.231Z,17.27
2019-05-18T10:56:31.271Z,20.10
2019-05-18T11:01:35.806Z,19.27
2019-05-18T11:06:40.398Z,16.93
2019-05-18T11:11:44.745Z,14.25
2019-05-18T11:16:49.100Z,14.53
2019-05-18T11:21:53.468Z,18.02
2019-05-18T11:26:57.839Z,15.63
2019-05-18T11:32:02.214Z,15.60
2019-05-18T11:37:06.621Z,16.32
2019-05-18T11:42:10.981Z,15.63
2019-05-18T11:47:15.340Z,13.98
2019-05-18T11:52:19.702Z,13.10
2019-05-18T11:57:24.124Z,15.13
2019-05-18T12:02:28.525Z,11.78
2019-05-18T12:07:32.893Z,10.10
2019-05-18T12:12:37.276Z,9.55
2019-05-18T12:17:41.640Z,9.58
2019-05-18T12:22:46.011Z,10.20
2019-05-18T12:27:50.376Z,8.40
2019-05-18T12:32:54.748Z,8.80
2019-05-18T12:37:59.153Z,9.30
2019-05-18T12:43:03.517Z,7.97
2019-05-18T12:48:07.940Z,7.72
2019-05-18T12:53:13.220Z,7.35
2019-05-18T12:58:17.536Z,7.67
2019-05-18T13:03:22.151Z,7.40
2019-05-18T13:08:26.512Z,12.13
2019-05-18T13:13:30.884Z,7.72
2019-05-18T13:18:35.875Z,7.53
2019-05-18T13:23:40.319Z,7.58
2019-05-18T13:28:44.661Z,7.33
2019-05-18T13:33:49.032Z,6.97
2019-05-18T13:38:53.364Z,9.03
2019-05-18T13:43:57.708Z,7.42
2019-05-18T13:49:02.072Z,8.40
2019-05-18T13:54:06.460Z,7.40
2019-05-18T13:59:10.805Z,7.67
2019-05-18T14:04:15.168Z,8.08
2019-05-18T14:09:19.506Z,8.05
2019-05-18T14:14:23.856Z,8.93
2019-05-18T14:19:28.232Z,9.70
2019-05-18T14:24:32.565Z,8.75
2019-05-18T14:29:36.927Z,8.70
2019-05-18T14:34:41.295Z,8.48
2019-05-18T14:39:45.722Z,9.28
2019-05-18T14:44:50.190Z,9.93
2019-05-18T14:49:56.637Z,9.10
2019-05-18T14:55:01.095Z,9.80
2019-05-18T15:00:07.938Z,8.80
2019-05-18T15:05:12.703Z,11.00
2019-05-18T15:10:17.429Z,9.35
2019-05-18T15:15:21.911Z,12.68
2019-05-18T15:20:26.263Z,10.08
2019-05-18T15:25:30.656Z,10.20
2019-05-18T15:30:35.017Z,9.58
2019-05-18T15:35:39.389Z,10.28
2019-05-18T15:40:43.923Z,9.63
2019-05-18T15:45:48.301Z,9.90
2019-05-18T15:50:52.660Z,9.78
2019-05-18T15:56:05.278Z,12.45
2019-05-18T16:01:03.261Z,10.32
2019-05-18T16:06:07.647Z,11.12
2019-05-18T16:11:11.998Z,21.27
2019-05-18T16:16:16.349Z,46.42
2019-05-18T16:21:20.707Z,54.33
2019-05-18T16:26:25.099Z,54.27
2019-05-18T16:31:29.535Z,46.23
2019-05-18T16:36:33.962Z,31.97
2019-05-18T16:41:38.306Z,33.30
2019-05-18T16:46:42.679Z,35.95
2019-05-18T16:51:47.065Z,32.42
2019-05-18T16:56:51.429Z,26.87
2019-05-18T17:01:55.902Z,25.97
2019-05-18T17:07:00.242Z,26.20
2019-05-18T17:12:04.671Z,22.58
2019-05-18T17:17:09.040Z,23.18
2019-05-18T17:22:13.397Z,20.05
2019-05-18T17:27:17.762Z,18.10
2019-05-18T17:32:22.132Z,18.10
2019-05-18T17:37:26.633Z,17.15
2019-05-18T17:42:30.985Z,16.80
2019-05-18T17:47:35.451Z,15.75
2019-05-18T17:52:39.855Z,14.70
2019-05-18T17:57:44.196Z,14.05
2019-05-18T18:02:48.591Z,13.78
2019-05-18T18:07:55.525Z,13.50
2019-05-18T18:12:59.066Z,13.80
2019-05-18T18:18:03.421Z,12.73
2019-05-18T18:23:08.484Z,12.25
2019-05-18T18:28:12.995Z,13.13
2019-05-18T18:33:17.435Z,12.73
2019-05-18T18:38:21.780Z,13.95
2019-05-18T18:43:26.214Z,11.70
2019-05-18T18:48:30.568Z,12.18
2019-05-18T18:53:34.939Z,11.50
2019-05-18T18:58:42.419Z,12.93
2019-05-18T19:03:46.961Z,12.05
2019-05-18T19:08:51.328Z,11.80
2019-05-18T19:13:55.673Z,11.85
2019-05-18T19:19:00.027Z,10.93
2019-05-18T19:24:04.475Z,11.95
2019-05-18T19:29:09.098Z,12.18
2019-05-18T19:34:13.660Z,11.40
2019-05-18T19:39:17.967Z,11.28
2019-05-18T19:44:24.045Z,10.90
2019-05-18T19:49:28.525Z,10.80
2019-05-18T19:54:33.002Z,11.38
2019-05-18T19:59:37.362Z,10.95
2019-05-18T20:04:41.755Z,10.03
2019-05-18T20:09:46.169Z,10.78
2019-05-18T20:14:50.603Z,10.60
2019-05-18T20:19:54.967Z,10.35
2019-05-18T20:24:59.355Z,10.03
2019-05-18T20:30:04.664Z,9.95
2019-05-18T20:35:09.005Z,10.80
2019-05-18T20:40:13.899Z,9.28
2019-05-18T20:45:18.340Z,9.70
2019-05-18T20:50:22.685Z,9.38
2019-05-18T20:55:27.023Z,10.08
2019-05-18T21:00:31.383Z,9.90
2019-05-18T21:05:35.764Z,9.80
2019-05-18T21:10:40.116Z,9.50
2019-05-18T21:15:44.520Z,9.05
2019-05-18T21:20:48.961Z,9.60
2019-05-18T21:25:53.359Z,8.63
2019-05-18T21:30:57.671Z,9.10
2019-05-18T21:36:02.036Z,8.50
2019-05-18T21:41:06.451Z,8.83
2019-05-18T21:46:10.790Z,9.18
2019-05-18T21:51:15.149Z,8.65
2019-05-18T21:56:19.502Z,9.43
2019-05-18T22:01:23.832Z,8.68
2019-05-18T22:06:28.182Z,10.25
2019-05-18T22:11:32.527Z,9.65
2019-05-18T22:16:36.887Z,9.28
2019-05-18T22:21:41.245Z,9.63
2019-05-18T22:26:45.596Z,9.68
2019-05-18T22:31:49.942Z,9.58
2019-05-18T22:36:54.286Z,9.00
2019-05-18T22:41:58.648Z,9.70
2019-05-18T22:47:03.004Z,9.68
2019-05-18T22:52:07.460Z,9.70
2019-05-18T22:57:11.820Z,9.28
2019-05-18T23:02:16.168Z,9.90
2019-05-18T23:07:20.525Z,9.78
2019-05-18T23:12:24.904Z,9.18
2019-05-18T23:17:29.263Z,9.33
2019-05-18T23:22:33.607Z,8.43
2019-05-18T23:27:39.510Z,9.70
2019-05-18T23:32:43.867Z,9.03
2019-05-18T23:37:48.238Z,8.03
2019-05-18T23:42:52.555Z,8.90
2019-05-18T23:47:59.485Z,9.10
2019-05-18T23:53:22.341Z,8.70
2019-05-18T23:58:26.676Z,9.08
